createdAt,value
2023-06-03T14:40:41.481Z,33.75
2023-06-03T14:43:26.352Z,33.77
2023-06-03T14:46:10.967Z,33.83
2023-06-03T14:49:08.886Z,33.65
2023-06-03T14:51:54.000Z,33.76
2023-06-03T14:55:09.620Z,33.70
2023-06-03T14:57:54.335Z,33.50
2023-06-03T15:01:06.158Z,33.54
2023-06-03T15:03:51.022Z,33.30
2023-06-03T15:06:49.105Z,33.41
2023-06-03T15:09:33.938Z,33.50
2023-06-03T15:12:04.669Z,33.40
2023-06-03T15:15:02.897Z,33.46
2023-06-03T15:18:15.722Z,33.33
2023-06-03T15:21:29.411Z,33.22
2023-06-03T15:24:41.104Z,33.19
2023-06-03T15:27:52.806Z,33.29
2023-06-03T15:34:02.584Z,33.37
2023-06-03T15:37:14.276Z,33.46
2023-06-03T15:40:25.969Z,33.35
2023-06-03T15:43:24.137Z,33.35
2023-06-03T15:46:35.883Z,33.50
2023-06-03T15:49:47.784Z,33.28
2023-06-03T15:52:59.516Z,33.38
2023-06-03T15:56:11.380Z,33.32
2023-06-03T15:59:23.221Z,33.35
2023-06-03T16:02:21.776Z,33.32
2023-06-03T16:05:19.813Z,33.29
2023-06-03T16:11:43.033Z,33.40
2023-06-03T16:14:27.370Z,33.21
2023-06-03T16:17:25.439Z,33.25
2023-06-03T16:20:24.383Z,33.37
2023-06-03T16:23:23.152Z,33.35
2023-06-03T16:26:34.937Z,33.47
2023-06-03T16:29:46.850Z,33.43
2023-06-03T16:32:31.309Z,33.39
2023-06-03T16:35:29.443Z,33.35
2023-06-03T16:38:27.861Z,33.33
2023-06-03T16:41:25.618Z,33.22
2023-06-03T16:44:23.496Z,33.26
2023-06-03T16:47:22.308Z,33.29
2023-06-03T16:50:07.562Z,33.35
2023-06-03T16:56:32.220Z,33.39
2023-06-03T16:59:10.242Z,33.27
2023-06-03T17:05:22.179Z,33.42
2023-06-03T17:08:06.164Z,33.39
2023-06-03T17:11:04.728Z,33.34
2023-06-03T17:14:03.960Z,33.44
2023-06-03T17:17:02.312Z,33.56
2023-06-03T17:23:26.701Z,33.55
2023-06-03T17:26:38.587Z,33.55
2023-06-03T17:29:50.414Z,33.59
2023-06-03T17:33:02.103Z,33.56
2023-06-03T17:35:47.082Z,33.56
2023-06-03T17:38:45.122Z,33.77
2023-06-03T17:41:16.110Z,33.70
2023-06-03T17:47:25.811Z,33.77
2023-06-03T17:50:23.798Z,33.83
2023-06-03T17:53:21.606Z,33.97
2023-06-03T17:56:19.718Z,33.88
2023-06-03T17:59:04.313Z,33.97
2023-06-03T18:01:35.501Z,33.93
2023-06-03T18:04:20.011Z,34.04
2023-06-03T18:07:04.279Z,33.90
2023-06-03T18:09:49.087Z,34.03
2023-06-03T18:12:20.117Z,34.04
2023-06-03T18:18:30.074Z,34.16
2023-06-03T18:21:41.765Z,34.13
2023-06-03T18:24:26.790Z,34.21
2023-06-03T18:27:24.863Z,34.22
2023-06-03T18:30:24.109Z,34.37
2023-06-03T18:33:35.818Z,34.34
2023-06-03T18:36:20.882Z,34.44
2023-06-03T18:39:18.905Z,34.40
2023-06-03T18:42:03.728Z,34.50
2023-06-03T18:48:00.028Z,34.63
2023-06-03T18:50:31.080Z,34.69
2023-06-03T18:53:02.107Z,34.67
2023-06-03T18:55:33.246Z,34.79
2023-06-03T18:58:04.553Z,34.72
2023-06-03T19:00:37.112Z,34.83
2023-06-03T19:03:27.738Z,34.83
2023-06-03T19:05:59.946Z,34.87
2023-06-03T19:08:31.062Z,34.93
2023-06-03T19:11:15.776Z,34.94
2023-06-03T19:13:46.820Z,34.98
2023-06-03T19:16:17.620Z,34.99
2023-06-03T19:19:02.464Z,35.00
2023-06-03T19:21:47.235Z,35.27
2023-06-03T19:24:18.565Z,35.20
2023-06-03T19:27:03.007Z,35.17
2023-06-03T19:29:47.326Z,35.20
2023-06-03T19:32:18.216Z,35.30
2023-06-03T19:35:16.393Z,35.40
2023-06-03T19:40:59.949Z,35.36
2023-06-03T19:43:44.338Z,35.59
2023-06-03T19:46:30.221Z,35.65
2023-06-03T19:49:01.652Z,35.54
2023-06-03T19:51:45.898Z,35.62
2023-06-03T19:54:30.123Z,35.67
2023-06-03T19:57:28.066Z,35.77
2023-06-03T20:03:25.037Z,35.85
2023-06-03T20:06:09.517Z,35.79
2023-06-03T20:08:56.126Z,35.98
2023-06-03T20:11:28.043Z,35.93
2023-06-03T20:23:21.787Z,36.11
2023-06-03T20:25:53.026Z,36.05
2023-06-03T20:28:37.978Z,36.14
2023-06-03T20:34:34.370Z,36.29
2023-06-03T20:40:44.422Z,36.26
2023-06-03T20:43:42.227Z,36.34
2023-06-03T20:46:40.127Z,36.60
2023-06-03T20:49:51.861Z,36.52
2023-06-03T20:52:49.613Z,36.55
2023-06-03T20:56:01.306Z,36.64
2023-06-03T20:58:31.846Z,36.64
2023-06-03T21:01:43.578Z,36.76
2023-06-03T21:04:27.835Z,36.78
2023-06-03T21:07:11.941Z,36.86
2023-06-03T21:10:09.750Z,36.71
2023-06-03T21:16:33.086Z,37.02
2023-06-03T21:19:32.782Z,37.04
2023-06-03T21:22:45.295Z,37.04
2023-06-03T21:25:43.105Z,37.07
2023-06-03T21:28:54.852Z,37.12
2023-06-03T21:32:06.589Z,37.21
2023-06-03T21:34:37.633Z,37.27
2023-06-03T21:37:08.686Z,37.28
2023-06-03T21:39:56.118Z,37.38
2023-06-03T21:43:07.813Z,37.53
2023-06-03T21:46:05.662Z,37.50
2023-06-03T21:49:03.846Z,37.48
2023-06-03T21:52:02.352Z,37.57
2023-06-03T21:54:46.746Z,37.68
2023-06-03T21:57:44.706Z,37.63
2023-06-03T22:00:29.441Z,37.89
2023-06-03T22:03:14.327Z,37.81
2023-06-03T22:06:12.463Z,37.87
2023-06-03T22:09:12.454Z,37.81
2023-06-03T22:11:43.680Z,37.89
2023-06-03T22:17:39.953Z,37.96
2023-06-03T22:20:11.348Z,37.93
2023-06-03T22:26:48.613Z,38.10
2023-06-03T22:29:19.516Z,38.12
2023-06-03T22:32:03.965Z,38.08
2023-06-03T22:34:34.856Z,38.06
2023-06-03T22:37:18.983Z,38.13
2023-06-03T22:40:30.653Z,38.26
2023-06-03T22:43:28.882Z,38.22
2023-06-03T22:46:40.718Z,38.42
2023-06-03T22:49:38.750Z,38.35
2023-06-03T22:52:23.151Z,38.43
2023-06-03T22:55:21.807Z,38.41
2023-06-03T22:58:33.628Z,38.40
2023-06-03T23:01:31.453Z,38.47
2023-06-03T23:04:15.555Z,38.70
2023-06-03T23:10:25.782Z,38.79
2023-06-03T23:13:37.587Z,38.78
2023-06-03T23:23:26.450Z,38.82
2023-06-03T23:26:38.108Z,38.53
2023-06-03T23:29:21.968Z,38.74
2023-06-03T23:32:20.142Z,38.88
2023-06-03T23:35:17.982Z,38.83
2023-06-03T23:38:29.648Z,38.93
2023-06-03T23:41:14.520Z,38.92
2023-06-03T23:44:12.281Z,39.04
2023-06-03T23:47:10.048Z,39.07
2023-06-03T23:53:20.293Z,39.13
2023-06-03T23:56:31.964Z,39.11
2023-06-03T23:59:43.756Z,39.21
